Flight Track Log - Related Links

Times and Time Zones

All times are in EDT time to prevent confusion due to time zone crossing. See the SKW6195 flight status page for this flight to view local times or setup timezone preferences in your user account.

Time Position Orientation Groundspeed Altitude Reporting Facility
EDT Latitude Longitude Course Direction KTS MPH feet Rate Location/Type
Wed 03:52:06 PM 45.7986 -111.1811 332° Northwest 156 180 5,300  Level Salt Lake Center
Wed 03:52:41 PM 45.6961 -111.1328 162° South 201 231 6,100 1,935 Climbing Salt Lake Center
Wed 03:53:08 PM 45.7878 -111.2508 318° Northwest 217 250 7,300 2,500 Climbing Salt Lake Center
Wed 03:53:41 PM 45.6450 -111.1919 164° South 252 290 8,600 2,032 Climbing Salt Lake Center
Wed 03:54:10 PM 45.7211 -111.2633 327° Northwest 275 316 9,400 2,291 Climbing Salt Lake Center
Wed 03:54:36 PM 45.5767 -111.1522 152° Southeast 311 358 10,700 2,613 Climbing Salt Lake Center
Wed 03:55:00 PM 45.4307 -110.7230 145° Southeast  Level Estimated
Wed 03:55:12 PM 45.6439 -111.1922 337° Northwest 304 350 12,100  Level Salt Lake Center
Wed 03:55:42 PM 45.5144 -111.0592 144° Southeast 332 382 13,000 2,032 Climbing Salt Lake Center
Wed 03:56:00 PM 45.3501 -110.6236 139° Southeast  Level FlightAware Approximate
Wed 03:56:14 PM 45.6311 -111.0647 358° North 334 384 14,200  Level Salt Lake Center
Wed 03:56:37 PM 45.5189 -110.9333 141° Southeast 348 400 15,100 2,262 Climbing Salt Lake Center
Wed 03:57:00 PM 45.2691 -110.5249 150° Southeast  Level Estimated
Wed 03:57:15 PM 45.6389 -110.9275 North 342 394 16,500  Level Salt Lake Center
Wed 03:57:37 PM 45.5242 -110.7944 141° Southeast 346 398 17,200 1,839 Climbing Salt Lake Center
Wed 03:58:17 PM 45.6306 -110.7922 North 343 395 18,400 1,770 Climbing Salt Lake Center
Wed 03:58:38 PM 45.4806 -110.6819 153° Southeast 345 397 19,000 1,839 Climbing Salt Lake Center
Wed 03:59:19 PM 45.5522 -110.7133 343° North 339 390 20,300 1,770 Climbing Salt Lake Center
Wed 03:59:39 PM 45.4050 -110.6156 155° Southeast 338 389 20,800 1,548 Climbing Salt Lake Center
Wed 04:00:21 PM 45.4708 -110.6369 347° North 342 394 21,900 1,700 Climbing Salt Lake Center
Wed 04:00:39 PM 45.3231 -110.5431 156° South 343 395 22,500 1,672 Climbing Salt Lake Center
Wed 04:01:22 PM 45.3856 -110.5594 350° North 344 396 23,600 1,418 Climbing Salt Lake Center
Wed 04:01:34 PM 45.2447 -110.4753 157° South 346 398 23,800 1,065 Climbing Salt Lake Center
Wed 04:02:24 PM 45.3031 -110.4839 354° North 352 405 24,700 1,200 Climbing Salt Lake Center
Wed 04:02:34 PM 45.1581 -110.4025 158° South 353 406 25,000 1,161 Climbing Salt Lake Center
Wed 04:03:26 PM 45.2192 -110.4067 357° North 360 414 25,900 1,082 Climbing Salt Lake Center
Wed 04:03:35 PM 45.0706 -110.3275 159° South 362 417 26,100 871 Climbing Salt Lake Center
Wed 04:04:28 PM 45.1333 -110.3278 360° North 367 422 26,800 885 Climbing Salt Lake Center
Wed 04:04:36 PM 44.9806 -110.2508 160° South 371 427 27,000 971 Climbing Salt Lake Center
Wed 04:05:36 PM 44.8964 -110.1803 149° Southeast 379 436 27,900 887 Climbing Salt Lake Center
Wed 04:06:31 PM 44.9486 -110.1572 17° North 385 443 28,700 984 Climbing Salt Lake Center
Wed 04:06:37 PM 44.8019 -110.0969 164° South 386 444 28,900 871 Climbing Salt Lake Center
Wed 04:07:33 PM 44.8583 -110.0425 34° Northeast 390 449 29,600 700 Climbing Salt Lake Center
Wed 04:07:37 PM 44.7181 -109.9956 167° South 392 451 29,600 554 Level Salt Lake Center
Wed 04:08:38 PM 44.6325 -109.8892 138° Southeast 404 465 30,200 600 Climbing Salt Lake Center
Wed 04:09:37 PM 44.6919 -109.8306 35° Northeast 407 468 30,800 689 Climbing Salt Lake Center
Wed 04:09:39 PM 44.5458 -109.7867 168° South 408 470 30,900 689 Climbing Salt Lake Center
Wed 04:10:38 PM 44.6083 -109.7239 36° Northeast 406 467 31,500 545 Climbing Salt Lake Center
Wed 04:11:40 PM 44.5267 -109.6164 137° Southeast 398 458 32,000 339 Climbing Salt Lake Center
Wed 04:12:42 PM 44.4297 -109.4936 138° Southeast 413 475 32,200 290 Climbing Salt Lake Center
Wed 04:13:44 PM 44.3353 -109.3769 139° Southeast 428 493 32,600 242 Climbing Salt Lake Center
Wed 04:14:46 PM 44.2472 -109.2669 138° Southeast 427 491 32,700 195 Climbing Salt Lake Center
Wed 04:15:47 PM 44.1564 -109.1544 138° Southeast 437 503 33,000 146 Climbing Salt Lake Center
Wed 04:16:49 PM 44.0650 -109.0408 138° Southeast 441 507 33,000  Level Salt Lake Center
Wed 04:17:51 PM 43.9739 -108.9264 138° Southeast 443 510 33,000  Level Salt Lake Center
Wed 04:18:53 PM 43.8811 -108.8108 138° Southeast 449 517 33,000  Level Salt Lake Center
Wed 04:19:54 PM 43.7711 -108.6764 139° Southeast 443 510 33,000  Level Salt Lake Center
Wed 04:20:56 PM 43.6794 -108.5639 138° Southeast 443 510 33,000  Level Salt Lake Center
Wed 04:21:58 PM 43.5869 -108.4531 139° Southeast 443 510 33,000  Level Salt Lake Center
Wed 04:22:59 PM 43.4947 -108.3406 138° Southeast 443 510 33,000  Level Salt Lake Center
Wed 04:24:01 PM 43.3986 -108.2319 141° Southeast 448 516 33,000  Level Salt Lake Center
Wed 04:25:03 PM 43.3022 -108.1297 142° Southeast 442 509 33,000  Level Salt Lake Center
Wed 04:26:05 PM 43.2078 -108.0294 142° Southeast 434 499 33,000  Level Salt Lake Center
Wed 04:27:08 PM 43.0956 -107.9136 143° Southeast 425 489 33,000  Level Salt Lake Center
Wed 04:28:08 PM 43.0025 -107.8133 142° Southeast 427 491 33,000  Level Salt Lake Center
Wed 04:29:10 PM 42.9044 -107.7114 143° Southeast 425 489 33,000  Level Salt Lake Center
Wed 04:30:11 PM 42.8133 -107.6175 143° Southeast 427 491 33,000  Level Salt Lake Center
Wed 04:31:15 PM 42.7064 -107.5058 142° Southeast 433 498 33,000  Level Salt Lake Center
Wed 04:32:15 PM 42.6144 -107.4100 142° Southeast 434 499 33,000  Level Salt Lake Center
Wed 04:33:17 PM 42.5225 -107.3150 143° Southeast 435 501 33,000  Level Salt Lake Center
Wed 04:34:23 PM 42.4144 -107.2050 143° Southeast 433 498 33,000  Level Salt Lake Center
Wed 04:34:55 PM 42.3519 -107.1406 143° Southeast 436 502 33,000  Level Denver Center
Wed 04:35:57 PM 42.2583 -107.0458 143° Southeast 439 505 33,000  Level Denver Center
Wed 04:36:59 PM 42.1489 -106.9339 143° Southeast 440 506 33,000  Level Denver Center
Wed 04:38:01 PM 42.0531 -106.8383 143° Southeast 446 513 33,000  Level Denver Center
Wed 04:39:03 PM 41.9436 -106.7272 143° Southeast 441 507 33,000  Level Denver Center
Wed 04:40:05 PM 41.8492 -106.6319 143° Southeast 442 509 33,000  Level Denver Center
Wed 04:41:07 PM 41.7547 -106.5386 144° Southeast 440 506 33,000  Level Denver Center
Wed 04:42:09 PM 41.6533 -106.4375 143° Southeast 440 506 33,000  Level Denver Center
Wed 04:43:11 PM 41.5417 -106.3272 144° Southeast 445 512 33,000  Level Denver Center
Wed 04:44:13 PM 41.4428 -106.2397 146° Southeast 446 513 33,000  Level Denver Center
Wed 04:45:15 PM 41.3178 -106.1853 162° South 424 488 33,000  Level Denver Center
Wed 04:46:17 PM 41.2100 -106.1403 163° South 424 488 33,000  Level Denver Center
Wed 04:47:19 PM 41.0864 -106.0736 158° South 430 495 33,000 -242 Level Denver Center
Wed 04:48:21 PM 40.9664 -106.0075 157° South 434 499 32,500 -1,113 Descending Denver Center
Wed 04:49:23 PM 40.8644 -105.9047 143° Southeast 465 535 30,700 -1,742 Descending Denver Center
Wed 04:50:25 PM 40.7969 -105.7464 119° Southeast 494 568 28,900 -1,887 Descending Denver Center
Wed 04:51:27 PM 40.7425 -105.5814 113° Southeast 493 567 26,800 -2,129 Descending Denver Center
Wed 04:52:29 PM 40.6806 -105.4444 121° Southeast 448 516 24,500 -2,516 Descending Denver Center
Wed 04:53:31 PM 40.5967 -105.3553 141° Southeast 393 452 21,600 -2,832 Descending Denver Center
Wed 04:54:34 PM 40.5022 -105.2519 140° Southeast 373 429 18,600 -2,304 Descending Denver Center
Wed 04:55:36 PM 40.4333 -105.1703 138° Southeast 333 383 16,800 -1,676 Descending Denver Center
Wed 04:56:50 PM 40.3753 -105.0447 121° Southeast 324 373 14,800 -1,588 Descending Denver Center
Wed 04:57:52 PM 40.2939 -104.9878 152° Southeast 310 357 13,200 -871 Descending Denver Center
Wed 04:58:54 PM 40.2158 -104.9350 153° Southeast 317 365 13,000 -96 Descending Denver Center
Wed 04:59:57 PM 40.1403 -104.8836 153° Southeast 308 354 13,000  Level Denver Center
Wed 05:00:59 PM 40.0617 -104.8300 152° Southeast 299 344 13,000  Level Denver Center
Wed 05:02:01 PM 39.9994 -104.7878 153° Southeast 259 298 13,000 -532 Level Denver Center
Wed 05:03:03 PM 39.9758 -104.7014 110° East 265 305 11,900 -919 Descending Denver Center
Wed 05:04:05 PM 39.9842 -104.6128 83° East 247 284 11,100 -435 Descending Denver Center
Wed 05:05:07 PM 39.9864 -104.5308 88° East 228 262 11,000 -823 Descending Denver Center
Wed 05:06:09 PM 39.9822 -104.4381 93° East 236 272 9,400 -1,355 Descending Denver Center
Wed 05:07:11 PM 39.9583 -104.3661 113° Southeast 233 268 8,200 -968 Descending Denver Center
Wed 05:08:13 PM 39.8931 -104.3589 175° South 219 252 7,400 -387 Descending Denver Center
Wed 05:09:15 PM 39.8747 -104.4331 252° West 218 251 7,400 -240 Level Denver Center
Wed 05:10:18 PM 39.8767 -104.5086 272° West 210 242 6,900 -672 Descending Denver Center
Wed 05:11:20 PM 39.8767 -104.5750 270° West 174 200 6,000 -774 Descending Denver Center
Wed 05:12:22 PM 39.8775 -104.6267 271° West 160 184 5,300 -677 Descending Denver Center

Login

Don't have an account? Register now (free) for customized features, flight alerts, and more!